Terminal Aerodrome Forecast
Issued by NWS Memphis, TN

Home | Current Version | Previous Version | Text Only | Print | Product List | Glossary On
Versions: 1 2 3 4 5 6 7 8 9 10 11 12 13 14 15 16 17 18
895
FTUS44 KMEG 291120
TAFJBR
TAF
KJBR 291120Z 2912/3012 24003KT P6SM SCT025
      TEMPO 2912/2914 6SM BR BKN025
     FM291400 25005KT P6SM BKN035 BKN250
     FM292000 28005KT P6SM SCT045 SCT250
     FM300000 VRB03KT P6SM FEW050=

USA.gov is the U.S. government's official web portal to all federal, state and local government web resources and services.